sensor_id;sensor_type;location;lat;lon;timestamp;pressure;altitude;pressure_sealevel;temperature;humidity
77023;BME280;65952;51.440;-2.054;2023-06-26T00:01:14;100364.94;;;16.85;66.66
77023;BME280;65952;51.440;-2.054;2023-06-26T00:03:39;100369.53;;;16.78;66.93
77023;BME280;65952;51.440;-2.054;2023-06-26T00:06:05;100370.59;;;16.77;66.67
77023;BME280;65952;51.440;-2.054;2023-06-26T00:08:30;100367.88;;;16.77;66.72
77023;BME280;65952;51.440;-2.054;2023-06-26T00:10:56;100377.03;;;16.63;67.44
77023;BME280;65952;51.440;-2.054;2023-06-26T00:13:23;100383.06;;;16.65;67.38
77023;BME280;65952;51.440;-2.054;2023-06-26T00:15:48;100377.44;;;16.66;67.09
77023;BME280;65952;51.440;-2.054;2023-06-26T00:18:14;100382.25;;;16.71;67.04
77023;BME280;65952;51.440;-2.054;2023-06-26T00:20:39;100379.53;;;16.71;67.06
77023;BME280;65952;51.440;-2.054;2023-06-26T00:23:05;100376.63;;;16.72;66.48
77023;BME280;65952;51.440;-2.054;2023-06-26T00:25:33;100382.44;;;16.63;67.09
77023;BME280;65952;51.440;-2.054;2023-06-26T00:27:58;100384.53;;;16.61;67.15
77023;BME280;65952;51.440;-2.054;2023-06-26T00:30:23;100385.56;;;16.60;67.49
77023;BME280;65952;51.440;-2.054;2023-06-26T00:32:49;100390.16;;;16.59;67.01
77023;BME280;65952;51.440;-2.054;2023-06-26T00:35:15;100394.75;;;16.58;67.09
77023;BME280;65952;51.440;-2.054;2023-06-26T00:37:40;100398.47;;;16.57;67.28
77023;BME280;65952;51.440;-2.054;2023-06-26T00:40:06;100389.72;;;16.49;67.56
77023;BME280;65952;51.440;-2.054;2023-06-26T00:42:31;100380.13;;;16.39;67.82
77023;BME280;65952;51.440;-2.054;2023-06-26T00:44:57;100390.34;;;16.44;67.97
77023;BME280;65952;51.440;-2.054;2023-06-26T00:47:22;100389.91;;;16.47;67.89
77023;BME280;65952;51.440;-2.054;2023-06-26T00:49:49;100393.50;;;16.48;67.72
77023;BME280;65952;51.440;-2.054;2023-06-26T00:52:14;100388.69;;;16.50;67.43
77023;BME280;65952;51.440;-2.054;2023-06-26T00:54:40;100384.72;;;16.52;67.33
77023;BME280;65952;51.440;-2.054;2023-06-26T00:57:05;100392.84;;;16.52;67.09
77023;BME280;65952;51.440;-2.054;2023-06-26T00:59:30;100391.81;;;16.47;67.51
77023;BME280;65952;51.440;-2.054;2023-06-26T01:01:56;100399.91;;;16.40;67.39
77023;BME280;65952;51.440;-2.054;2023-06-26T01:04:21;100396.81;;;16.43;67.27
77023;BME280;65952;51.440;-2.054;2023-06-26T01:06:50;100395.34;;;16.40;67.60
77023;BME280;65952;51.440;-2.054;2023-06-26T01:09:21;100402.44;;;16.41;67.33
77023;BME280;65952;51.440;-2.054;2023-06-26T01:11:47;100393.66;;;16.39;67.14
77023;BME280;65952;51.440;-2.054;2023-06-26T01:14:13;100403.03;;;16.37;67.41
77023;BME280;65952;51.440;-2.054;2023-06-26T01:16:39;100400.31;;;16.30;67.55
77023;BME280;65952;51.440;-2.054;2023-06-26T01:19:19;100401.13;;;16.31;67.65
77023;BME280;65952;51.440;-2.054;2023-06-26T01:21:52;100401.34;;;16.29;67.67
77023;BME280;65952;51.440;-2.054;2023-06-26T01:24:22;100404.44;;;16.26;67.85
77023;BME280;65952;51.440;-2.054;2023-06-26T01:26:53;100407.78;;;16.21;67.93
77023;BME280;65952;51.440;-2.054;2023-06-26T01:29:19;100406.78;;;16.29;67.54
77023;BME280;65952;51.440;-2.054;2023-06-26T01:31:48;100407.78;;;16.21;67.84
77023;BME280;65952;51.440;-2.054;2023-06-26T01:34:16;100415.25;;;16.13;67.92
77023;BME280;65952;51.440;-2.054;2023-06-26T01:36:44;100412.97;;;16.16;67.61
77023;BME280;65952;51.440;-2.054;2023-06-26T01:39:10;100417.09;;;16.12;67.89
77023;BME280;65952;51.440;-2.054;2023-06-26T01:41:36;100411.09;;;16.10;67.82
77023;BME280;65952;51.440;-2.054;2023-06-26T01:44:29;100414.63;;;16.11;67.50
77023;BME280;65952;51.440;-2.054;2023-06-26T01:47:02;100418.19;;;16.18;67.16
77023;BME280;65952;51.440;-2.054;2023-06-26T01:49:46;100412.97;;;16.16;66.87
77023;BME280;65952;51.440;-2.054;2023-06-26T01:52:22;100425.47;;;16.17;66.89
77023;BME280;65952;51.440;-2.054;2023-06-26T01:55:01;100430.84;;;16.11;67.21
77023;BME280;65952;51.440;-2.054;2023-06-26T01:57:29;100428.16;;;16.11;67.37
77023;BME280;65952;51.440;-2.054;2023-06-26T01:59:56;100430.41;;;16.07;67.42
77023;BME280;65952;51.440;-2.054;2023-06-26T02:02:24;100431.06;;;16.09;67.22
77023;BME280;65952;51.440;-2.054;2023-06-26T02:04:49;100420.63;;;16.06;67.24
77023;BME280;65952;51.440;-2.054;2023-06-26T02:07:15;100433.53;;;16.04;67.40
77023;BME280;65952;51.440;-2.054;2023-06-26T02:09:41;100433.78;;;16.09;67.14
77023;BME280;65952;51.440;-2.054;2023-06-26T02:12:06;100429.78;;;16.05;67.09
77023;BME280;65952;51.440;-2.054;2023-06-26T02:14:32;100432.91;;;16.02;67.54
77023;BME280;65952;51.440;-2.054;2023-06-26T02:16:58;100432.25;;;16.00;67.52
77023;BME280;65952;51.440;-2.054;2023-06-26T02:19:25;100434.97;;;16.00;67.58
77023;BME280;65952;51.440;-2.054;2023-06-26T02:21:53;100429.31;;;15.95;67.74
77023;BME280;65952;51.440;-2.054;2023-06-26T02:24:19;100437.50;;;16.01;67.17
77023;BME280;65952;51.440;-2.054;2023-06-26T02:26:44;100427.47;;;15.95;67.41
77023;BME280;65952;51.440;-2.054;2023-06-26T02:29:11;100437.25;;;15.96;67.17
77023;BME280;65952;51.440;-2.054;2023-06-26T02:31:36;100440.78;;;15.97;67.24
77023;BME280;65952;51.440;-2.054;2023-06-26T02:34:02;100437.22;;;15.89;67.47
77023;BME280;65952;51.440;-2.054;2023-06-26T02:36:27;100444.31;;;15.90;67.52
77023;BME280;65952;51.440;-2.054;2023-06-26T02:38:52;100435.13;;;15.85;67.64
77023;BME280;65952;51.440;-2.054;2023-06-26T02:41:18;100438.25;;;15.88;67.23
77023;BME280;65952;51.440;-2.054;2023-06-26T02:43:43;100440.13;;;15.88;67.45
77023;BME280;65952;51.440;-2.054;2023-06-26T02:46:08;100438.44;;;15.87;67.22
77023;BME280;65952;51.440;-2.054;2023-06-26T02:48:34;100440.56;;;15.91;67.05
77023;BME280;65952;51.440;-2.054;2023-06-26T02:50:59;100436.81;;;15.92;66.98
77023;BME280;65952;51.440;-2.054;2023-06-26T02:53:25;100442.13;;;15.79;67.52
77023;BME280;65952;51.440;-2.054;2023-06-26T02:55:50;100438.66;;;15.85;66.99
77023;BME280;65952;51.440;-2.054;2023-06-26T02:58:15;100441.75;;;15.82;67.04
77023;BME280;65952;51.440;-2.054;2023-06-26T03:00:41;100445.03;;;15.77;67.31
77023;BME280;65952;51.440;-2.054;2023-06-26T03:03:07;100439.81;;;15.76;67.26
77023;BME280;65952;51.440;-2.054;2023-06-26T03:05:32;100442.91;;;15.73;67.50
77023;BME280;65952;51.440;-2.054;2023-06-26T03:07:58;100452.91;;;15.72;67.35
77023;BME280;65952;51.440;-2.054;2023-06-26T03:10:23;100450.38;;;15.71;67.34
77023;BME280;65952;51.440;-2.054;2023-06-26T03:12:49;100441.66;;;15.69;67.39
77023;BME280;65952;51.440;-2.054;2023-06-26T03:15:14;100446.19;;;15.62;67.76
77023;BME280;65952;51.440;-2.054;2023-06-26T03:17:40;100442.81;;;15.59;67.89
77023;BME280;65952;51.440;-2.054;2023-06-26T03:20:06;100448.00;;;15.54;68.05
77023;BME280;65952;51.440;-2.054;2023-06-26T03:22:33;100450.47;;;15.49;68.05
77023;BME280;65952;51.440;-2.054;2023-06-26T03:24:58;100453.56;;;15.46;68.22
77023;BME280;65952;51.440;-2.054;2023-06-26T03:27:24;100459.84;;;15.53;67.93
77023;BME280;65952;51.440;-2.054;2023-06-26T03:29:51;100469.41;;;15.49;68.07
77023;BME280;65952;51.440;-2.054;2023-06-26T03:32:16;100461.50;;;15.48;67.83
77023;BME280;65952;51.440;-2.054;2023-06-26T03:34:41;100463.75;;;15.44;68.02
77023;BME280;65952;51.440;-2.054;2023-06-26T03:37:07;100469.31;;;15.36;68.71
77023;BME280;65952;51.440;-2.054;2023-06-26T03:39:32;100465.72;;;15.28;68.85
77023;BME280;65952;51.440;-2.054;2023-06-26T03:41:58;100465.72;;;15.28;68.83
77023;BME280;65952;51.440;-2.054;2023-06-26T03:44:26;100474.19;;;15.25;68.82
77023;BME280;65952;51.440;-2.054;2023-06-26T03:46:51;100464.69;;;15.30;68.76
77023;BME280;65952;51.440;-2.054;2023-06-26T03:49:17;100478.38;;;15.28;68.50
77023;BME280;65952;51.440;-2.054;2023-06-26T03:51:43;100472.81;;;15.30;68.68
77023;BME280;65952;51.440;-2.054;2023-06-26T03:54:08;100482.06;;;15.20;69.01
77023;BME280;65952;51.440;-2.054;2023-06-26T03:56:34;100484.16;;;15.18;69.32
77023;BME280;65952;51.440;-2.054;2023-06-26T03:58:59;100486.78;;;15.11;69.26
77023;BME280;65952;51.440;-2.054;2023-06-26T04:01:25;100491.16;;;15.13;69.33
77023;BME280;65952;51.440;-2.054;2023-06-26T04:03:50;100489.66;;;15.10;69.88
77023;BME280;65952;51.440;-2.054;2023-06-26T04:06:16;100498.25;;;15.14;69.69
77023;BME280;65952;51.440;-2.054;2023-06-26T04:08:41;100493.66;;;15.14;69.85
77023;BME280;65952;51.440;-2.054;2023-06-26T04:11:07;100494.31;;;15.16;69.89
77023;BME280;65952;51.440;-2.054;2023-06-26T04:13:32;100500.38;;;15.18;69.81
77023;BME280;65952;51.440;-2.054;2023-06-26T04:15:57;100496.59;;;15.19;69.78
77023;BME280;65952;51.440;-2.054;2023-06-26T04:18:23;100515.16;;;15.22;69.99
77023;BME280;65952;51.440;-2.054;2023-06-26T04:21:17;100508.59;;;15.32;69.75
77023;BME280;65952;51.440;-2.054;2023-06-26T04:23:43;100515.88;;;15.31;69.65
77023;BME280;65952;51.440;-2.054;2023-06-26T04:26:09;100512.59;;;15.36;69.77
77023;BME280;65952;51.440;-2.054;2023-06-26T04:28:39;100518.88;;;15.43;69.84
77023;BME280;65952;51.440;-2.054;2023-06-26T04:31:04;100517.19;;;15.42;69.98
77023;BME280;65952;51.440;-2.054;2023-06-26T04:33:30;100523.91;;;15.46;69.82
77023;BME280;65952;51.440;-2.054;2023-06-26T04:35:55;100519.00;;;15.56;69.32
77023;BME280;65952;51.440;-2.054;2023-06-26T04:38:20;100538.19;;;15.62;69.27
77023;BME280;65952;51.440;-2.054;2023-06-26T04:40:49;100530.19;;;15.75;68.56
77023;BME280;65952;51.440;-2.054;2023-06-26T04:43:15;100532.59;;;15.85;68.27
77023;BME280;65952;51.440;-2.054;2023-06-26T04:45:40;100538.25;;;15.90;67.91
77023;BME280;65952;51.440;-2.054;2023-06-26T04:48:06;100539.50;;;15.94;67.54
77023;BME280;65952;51.440;-2.054;2023-06-26T04:50:31;100552.47;;;15.99;67.78
77023;BME280;65952;51.440;-2.054;2023-06-26T04:52:58;100549.34;;;16.02;67.47
77023;BME280;65952;51.440;-2.054;2023-06-26T04:55:24;100555.16;;;15.99;67.31
77023;BME280;65952;51.440;-2.054;2023-06-26T04:57:50;100547.72;;;16.07;67.06
77023;BME280;65952;51.440;-2.054;2023-06-26T05:00:16;100551.25;;;16.08;66.73
77023;BME280;65952;51.440;-2.054;2023-06-26T05:02:41;100561.44;;;16.06;67.00
77023;BME280;65952;51.440;-2.054;2023-06-26T05:05:07;100562.34;;;16.13;66.81
77023;BME280;65952;51.440;-2.054;2023-06-26T05:07:32;100547.84;;;16.28;66.14
77023;BME280;65952;51.440;-2.054;2023-06-26T05:09:57;100556.81;;;16.35;65.80
77023;BME280;65952;51.440;-2.054;2023-06-26T05:12:23;100553.50;;;16.33;65.92
77023;BME280;65952;51.440;-2.054;2023-06-26T05:14:48;100555.63;;;16.44;65.58
77023;BME280;65952;51.440;-2.054;2023-06-26T05:17:14;100556.91;;;16.48;65.20
77023;BME280;65952;51.440;-2.054;2023-06-26T05:19:40;100564.63;;;16.51;65.31
77023;BME280;65952;51.440;-2.054;2023-06-26T05:22:06;100554.66;;;16.58;64.97
77023;BME280;65952;51.440;-2.054;2023-06-26T05:24:35;100560.72;;;16.67;65.09
77023;BME280;65952;51.440;-2.054;2023-06-26T05:27:01;100554.53;;;16.80;64.63
77023;BME280;65952;51.440;-2.054;2023-06-26T05:29:27;100556.41;;;16.80;64.28
77023;BME280;65952;51.440;-2.054;2023-06-26T05:31:56;100556.41;;;16.86;64.05
77023;BME280;65952;51.440;-2.054;2023-06-26T05:34:23;100570.06;;;16.93;64.21
77023;BME280;65952;51.440;-2.054;2023-06-26T05:36:50;100564.84;;;17.05;63.51
77023;BME280;65952;51.440;-2.054;2023-06-26T05:39:16;100561.13;;;17.13;63.39
77023;BME280;65952;51.440;-2.054;2023-06-26T05:41:44;100559.47;;;17.25;62.73
77023;BME280;65952;51.440;-2.054;2023-06-26T05:44:10;100569.94;;;17.35;62.02
77023;BME280;65952;51.440;-2.054;2023-06-26T05:46:35;100574.09;;;17.44;62.05
77023;BME280;65952;51.440;-2.054;2023-06-26T05:49:00;100576.63;;;17.52;61.52
77023;BME280;65952;51.440;-2.054;2023-06-26T05:51:27;100583.31;;;17.70;60.97
77023;BME280;65952;51.440;-2.054;2023-06-26T05:53:53;100586.25;;;17.89;60.78
77023;BME280;65952;51.440;-2.054;2023-06-26T05:56:18;100592.13;;;17.99;60.58
77023;BME280;65952;51.440;-2.054;2023-06-26T05:58:45;100596.28;;;18.08;60.40
77023;BME280;65952;51.440;-2.054;2023-06-26T06:01:10;100601.72;;;18.08;60.71
77023;BME280;65952;51.440;-2.054;2023-06-26T06:03:36;100608.00;;;18.09;60.54
77023;BME280;65952;51.440;-2.054;2023-06-26T06:06:03;100609.22;;;18.19;60.27
77023;BME280;65952;51.440;-2.054;2023-06-26T06:08:28;100610.28;;;18.18;60.03
77023;BME280;65952;51.440;-2.054;2023-06-26T06:10:54;100602.53;;;18.29;60.48
77023;BME280;65952;51.440;-2.054;2023-06-26T06:13:19;100605.47;;;18.34;60.23
77023;BME280;65952;51.440;-2.054;2023-06-26T06:15:44;100596.88;;;18.37;59.59
77023;BME280;65952;51.440;-2.054;2023-06-26T06:18:10;100605.03;;;18.24;59.27
77023;BME280;65952;51.440;-2.054;2023-06-26T06:20:35;100602.09;;;18.32;59.28
77023;BME280;65952;51.440;-2.054;2023-06-26T06:23:01;100603.72;;;18.46;59.23
77023;BME280;65952;51.440;-2.054;2023-06-26T06:25:26;100598.81;;;19.59;57.32
77023;BME280;65952;51.440;-2.054;2023-06-26T06:27:51;100599.59;;;21.40;52.72
77023;BME280;65952;51.440;-2.054;2023-06-26T06:30:17;100593.69;;;23.15;46.86
77023;BME280;65952;51.440;-2.054;2023-06-26T06:32:42;100595.34;;;24.91;42.98
77023;BME280;65952;51.440;-2.054;2023-06-26T06:35:08;100595.75;;;26.30;39.50
77023;BME280;65952;51.440;-2.054;2023-06-26T06:37:36;100593.41;;;27.95;37.20
77023;BME280;65952;51.440;-2.054;2023-06-26T06:40:02;100597.13;;;29.22;32.84
77023;BME280;65952;51.440;-2.054;2023-06-26T06:42:28;100608.59;;;29.44;32.42
77023;BME280;65952;51.440;-2.054;2023-06-26T06:44:54;100613.78;;;29.91;31.18
77023;BME280;65952;51.440;-2.054;2023-06-26T06:47:20;100621.56;;;30.42;29.77
77023;BME280;65952;51.440;-2.054;2023-06-26T06:49:46;100622.75;;;31.04;29.69
77023;BME280;65952;51.440;-2.054;2023-06-26T06:52:11;100633.38;;;31.21;29.35
77023;BME280;65952;51.440;-2.054;2023-06-26T06:54:53;100629.75;;;31.20;28.38
77023;BME280;65952;51.440;-2.054;2023-06-26T06:57:20;100633.00;;;29.37;30.30
77023;BME280;65952;51.440;-2.054;2023-06-26T06:59:46;100641.97;;;27.86;33.62
77023;BME280;65952;51.440;-2.054;2023-06-26T07:02:13;100638.88;;;26.62;35.94
77023;BME280;65952;51.440;-2.054;2023-06-26T07:04:38;100647.50;;;25.95;36.95
77023;BME280;65952;51.440;-2.054;2023-06-26T07:07:03;100650.16;;;25.30;38.07
77023;BME280;65952;51.440;-2.054;2023-06-26T07:09:29;100649.47;;;25.40;38.60
77023;BME280;65952;51.440;-2.054;2023-06-26T07:11:54;100649.50;;;25.73;37.20
77023;BME280;65952;51.440;-2.054;2023-06-26T07:14:19;100660.94;;;26.24;36.55
77023;BME280;65952;51.440;-2.054;2023-06-26T07:16:45;100659.03;;;26.30;35.36
77023;BME280;65952;51.440;-2.054;2023-06-26T07:19:10;100660.53;;;26.48;35.27
77023;BME280;65952;51.440;-2.054;2023-06-26T07:21:35;100659.09;;;26.35;36.07
77023;BME280;65952;51.440;-2.054;2023-06-26T07:24:01;100660.66;;;27.32;35.06
77023;BME280;65952;51.440;-2.054;2023-06-26T07:26:26;100668.31;;;27.15;34.63
77023;BME280;65952;51.440;-2.054;2023-06-26T07:28:52;100665.63;;;26.72;35.79
77023;BME280;65952;51.440;-2.054;2023-06-26T07:31:17;100665.81;;;26.12;35.33
77023;BME280;65952;51.440;-2.054;2023-06-26T07:33:43;100675.47;;;26.63;34.94
77023;BME280;65952;51.440;-2.054;2023-06-26T07:36:08;100665.47;;;26.99;34.52
77023;BME280;65952;51.440;-2.054;2023-06-26T07:38:33;100671.50;;;27.65;33.48
77023;BME280;65952;51.440;-2.054;2023-06-26T07:40:59;100677.53;;;29.30;30.82
77023;BME280;65952;51.440;-2.054;2023-06-26T07:43:24;100680.03;;;30.11;28.67
77023;BME280;65952;51.440;-2.054;2023-06-26T07:45:49;100682.63;;;30.86;28.33
77023;BME280;65952;51.440;-2.054;2023-06-26T07:48:16;100666.91;;;31.00;26.76
77023;BME280;65952;51.440;-2.054;2023-06-26T07:50:42;100672.56;;;31.14;27.96
77023;BME280;65952;51.440;-2.054;2023-06-26T07:53:07;100677.34;;;30.84;27.67
77023;BME280;65952;51.440;-2.054;2023-06-26T07:55:33;100683.44;;;30.62;28.59
77023;BME280;65952;51.440;-2.054;2023-06-26T07:57:58;100677.38;;;30.30;27.76
77023;BME280;65952;51.440;-2.054;2023-06-26T08:00:24;100683.88;;;29.36;28.98
77023;BME280;65952;51.440;-2.054;2023-06-26T08:02:49;100685.84;;;28.39;29.63
77023;BME280;65952;51.440;-2.054;2023-06-26T08:05:15;100692.22;;;28.09;30.25
77023;BME280;65952;51.440;-2.054;2023-06-26T08:07:40;100694.13;;;27.93;32.22
77023;BME280;65952;51.440;-2.054;2023-06-26T08:10:06;100685.53;;;27.58;30.55
77023;BME280;65952;51.440;-2.054;2023-06-26T08:12:31;100693.88;;;27.00;31.57
77023;BME280;65952;51.440;-2.054;2023-06-26T08:14:57;100698.03;;;26.54;32.41
77023;BME280;65952;51.440;-2.054;2023-06-26T08:17:22;100687.78;;;26.07;32.59
77023;BME280;65952;51.440;-2.054;2023-06-26T08:19:47;100691.63;;;26.06;32.84
77023;BME280;65952;51.440;-2.054;2023-06-26T08:22:13;100691.25;;;25.70;32.22
77023;BME280;65952;51.440;-2.054;2023-06-26T08:24:38;100693.03;;;25.31;33.09
77023;BME280;65952;51.440;-2.054;2023-06-26T08:27:04;100690.38;;;25.14;33.81
77023;BME280;65952;51.440;-2.054;2023-06-26T08:29:29;100691.91;;;25.27;35.32
77023;BME280;65952;51.440;-2.054;2023-06-26T08:31:55;100698.59;;;24.92;33.22
77023;BME280;65952;51.440;-2.054;2023-06-26T08:34:20;100705.28;;;24.40;33.76
77023;BME280;65952;51.440;-2.054;2023-06-26T08:36:45;100696.94;;;24.35;34.59
77023;BME280;65952;51.440;-2.054;2023-06-26T08:39:11;100700.09;;;24.10;35.89
77023;BME280;65952;51.440;-2.054;2023-06-26T08:41:39;100701.03;;;24.15;34.98
77023;BME280;65952;51.440;-2.054;2023-06-26T08:44:04;100712.97;;;24.26;36.38
77023;BME280;65952;51.440;-2.054;2023-06-26T08:46:31;100702.22;;;24.59;35.37
77023;BME280;65952;51.440;-2.054;2023-06-26T08:49:21;100712.28;;;25.31;34.58
77023;BME280;65952;51.440;-2.054;2023-06-26T08:51:51;100711.63;;;25.24;34.88
77023;BME280;65952;51.440;-2.054;2023-06-26T08:54:22;100712.41;;;24.24;35.34
77023;BME280;65952;51.440;-2.054;2023-06-26T08:56:54;100713.28;;;23.79;35.89
77023;BME280;65952;51.440;-2.054;2023-06-26T08:59:20;100711.41;;;23.39;37.43
77023;BME280;65952;51.440;-2.054;2023-06-26T09:01:46;100713.19;;;22.92;38.34
77023;BME280;65952;51.440;-2.054;2023-06-26T09:04:12;100704.09;;;23.03;38.85
77023;BME280;65952;51.440;-2.054;2023-06-26T09:06:39;100708.97;;;23.13;38.68
77023;BME280;65952;51.440;-2.054;2023-06-26T09:09:04;100720.38;;;23.10;38.78
77023;BME280;65952;51.440;-2.054;2023-06-26T09:11:30;100719.81;;;23.20;38.57
77023;BME280;65952;51.440;-2.054;2023-06-26T09:13:55;100711.09;;;23.52;38.42
77023;BME280;65952;51.440;-2.054;2023-06-26T09:16:24;100712.97;;;23.63;38.57
77023;BME280;65952;51.440;-2.054;2023-06-26T09:18:52;100705.69;;;23.86;38.66
77023;BME280;65952;51.440;-2.054;2023-06-26T09:21:17;100706.09;;;24.24;37.23
77023;BME280;65952;51.440;-2.054;2023-06-26T09:23:43;100710.22;;;23.92;36.71
77023;BME280;65952;51.440;-2.054;2023-06-26T09:26:09;100714.72;;;23.98;37.41
77023;BME280;65952;51.440;-2.054;2023-06-26T09:28:35;100728.47;;;23.86;37.66
77023;BME280;65952;51.440;-2.054;2023-06-26T09:31:06;100722.91;;;24.10;37.37
77023;BME280;65952;51.440;-2.054;2023-06-26T09:33:35;100715.31;;;24.69;37.41
77023;BME280;65952;51.440;-2.054;2023-06-26T09:36:07;100734.41;;;25.20;35.31
77023;BME280;65952;51.440;-2.054;2023-06-26T09:38:36;100731.25;;;25.11;36.07
77023;BME280;65952;51.440;-2.054;2023-06-26T09:41:04;100734.03;;;24.72;36.04
77023;BME280;65952;51.440;-2.054;2023-06-26T09:43:30;100731.75;;;24.86;36.56
77023;BME280;65952;51.440;-2.054;2023-06-26T09:45:56;100728.78;;;25.09;36.47
77023;BME280;65952;51.440;-2.054;2023-06-26T09:48:23;100728.94;;;25.03;35.82
77023;BME280;65952;51.440;-2.054;2023-06-26T09:50:49;100733.31;;;25.21;36.50
77023;BME280;65952;51.440;-2.054;2023-06-26T09:53:15;100735.34;;;25.30;36.68
77023;BME280;65952;51.440;-2.054;2023-06-26T09:55:41;100732.97;;;25.61;37.35
77023;BME280;65952;51.440;-2.054;2023-06-26T09:58:10;100732.09;;;25.83;34.53
77023;BME280;65952;51.440;-2.054;2023-06-26T10:00:40;100743.56;;;26.35;33.52
77023;BME280;65952;51.440;-2.054;2023-06-26T10:03:06;100748.25;;;26.72;33.09
77023;BME280;65952;51.440;-2.054;2023-06-26T10:05:32;100748.22;;;27.09;32.77
77023;BME280;65952;51.440;-2.054;2023-06-26T10:07:58;100751.88;;;27.31;31.57
77023;BME280;65952;51.440;-2.054;2023-06-26T10:10:24;100751.84;;;27.25;32.15
77023;BME280;65952;51.440;-2.054;2023-06-26T10:12:55;100764.38;;;27.44;31.87
77023;BME280;65952;51.440;-2.054;2023-06-26T10:15:23;100751.44;;;26.53;31.63
77023;BME280;65952;51.440;-2.054;2023-06-26T10:17:55;100753.97;;;26.27;33.14
77023;BME280;65952;51.440;-2.054;2023-06-26T10:20:22;100756.13;;;25.93;34.21
77023;BME280;65952;51.440;-2.054;2023-06-26T10:22:48;100759.59;;;25.83;33.72
77023;BME280;65952;51.440;-2.054;2023-06-26T10:25:18;100772.25;;;25.84;33.34
77023;BME280;65952;51.440;-2.054;2023-06-26T10:27:50;100762.47;;;25.99;34.09
77023;BME280;65952;51.440;-2.054;2023-06-26T10:30:21;100766.44;;;26.35;34.04
77023;BME280;65952;51.440;-2.054;2023-06-26T10:32:48;100776.13;;;26.75;32.48
77023;BME280;65952;51.440;-2.054;2023-06-26T10:35:14;100765.63;;;26.40;31.88
77023;BME280;65952;51.440;-2.054;2023-06-26T10:37:48;100769.47;;;26.39;32.47
77023;BME280;65952;51.440;-2.054;2023-06-26T10:40:20;100767.88;;;27.29;31.15
77023;BME280;65952;51.440;-2.054;2023-06-26T10:42:46;100764.44;;;27.74;30.85
77023;BME280;65952;51.440;-2.054;2023-06-26T10:45:20;100768.84;;;27.65;30.07
77023;BME280;65952;51.440;-2.054;2023-06-26T10:47:48;100773.88;;;27.94;30.21
77023;BME280;65952;51.440;-2.054;2023-06-26T10:50:24;100765.66;;;28.25;30.30
77023;BME280;65952;51.440;-2.054;2023-06-26T10:56:02;100767.28;;;28.31;28.98
77023;BME280;65952;51.440;-2.054;2023-06-26T11:03:48;100769.44;;;27.14;31.95
77023;BME280;65952;51.440;-2.054;2023-06-26T11:06:21;100767.28;;;27.21;31.51
77023;BME280;65952;51.440;-2.054;2023-06-26T11:08:54;100779.09;;;27.17;30.85
77023;BME280;65952;51.440;-2.054;2023-06-26T11:11:21;100782.47;;;27.29;30.62
77023;BME280;65952;51.440;-2.054;2023-06-26T11:13:47;100780.34;;;26.88;32.05
77023;BME280;65952;51.440;-2.054;2023-06-26T11:16:14;100783.63;;;26.90;32.02
77023;BME280;65952;51.440;-2.054;2023-06-26T11:18:40;100777.22;;;26.74;31.72
77023;BME280;65952;51.440;-2.054;2023-06-26T11:23:32;100774.44;;;27.17;31.07
77023;BME280;65952;51.440;-2.054;2023-06-26T11:26:12;100771.59;;;27.65;29.95
77023;BME280;65952;51.440;-2.054;2023-06-26T11:28:38;100791.66;;;27.40;28.25
77023;BME280;65952;51.440;-2.054;2023-06-26T11:31:03;100787.09;;;26.38;29.25
77023;BME280;65952;51.440;-2.054;2023-06-26T11:33:29;100792.56;;;26.33;31.12
77023;BME280;65952;51.440;-2.054;2023-06-26T11:35:54;100789.53;;;26.67;31.64
77023;BME280;65952;51.440;-2.054;2023-06-26T11:38:20;100791.34;;;26.88;30.04
77023;BME280;65952;51.440;-2.054;2023-06-26T11:40:48;100791.97;;;26.96;28.87
77023;BME280;65952;51.440;-2.054;2023-06-26T11:43:13;100789.13;;;26.15;28.39
77023;BME280;65952;51.440;-2.054;2023-06-26T11:45:40;100796.53;;;25.65;29.88
77023;BME280;65952;51.440;-2.054;2023-06-26T11:48:05;100801.59;;;26.01;29.89
77023;BME280;65952;51.440;-2.054;2023-06-26T11:50:32;100796.19;;;26.11;31.00
77023;BME280;65952;51.440;-2.054;2023-06-26T11:53:02;100798.47;;;25.42;29.93
77023;BME280;65952;51.440;-2.054;2023-06-26T11:55:40;100796.06;;;24.56;31.45
77023;BME280;65952;51.440;-2.054;2023-06-26T11:58:06;100802.88;;;24.53;33.45
77023;BME280;65952;51.440;-2.054;2023-06-26T12:00:31;100798.56;;;24.57;32.91
77023;BME280;65952;51.440;-2.054;2023-06-26T12:02:58;100795.81;;;24.57;33.25
77023;BME280;65952;51.440;-2.054;2023-06-26T12:05:23;100794.31;;;25.01;34.24
77023;BME280;65952;51.440;-2.054;2023-06-26T12:07:49;100798.88;;;25.12;32.87
77023;BME280;65952;51.440;-2.054;2023-06-26T12:10:17;100788.16;;;25.15;33.45
77023;BME280;65952;51.440;-2.054;2023-06-26T12:12:44;100795.66;;;25.20;31.94
77023;BME280;65952;51.440;-2.054;2023-06-26T12:15:15;100801.31;;;24.91;32.87
77023;BME280;65952;51.440;-2.054;2023-06-26T12:17:41;100798.22;;;24.88;33.32
77023;BME280;65952;51.440;-2.054;2023-06-26T12:20:18;100798.69;;;25.02;33.32
77023;BME280;65952;51.440;-2.054;2023-06-26T12:22:46;100792.19;;;25.08;31.99
77023;BME280;65952;51.440;-2.054;2023-06-26T12:25:12;100790.25;;;24.86;30.74
77023;BME280;65952;51.440;-2.054;2023-06-26T12:27:38;100794.31;;;25.01;31.42
77023;BME280;65952;51.440;-2.054;2023-06-26T12:30:04;100792.75;;;25.49;32.24
77023;BME280;65952;51.440;-2.054;2023-06-26T12:32:30;100785.84;;;25.69;31.51
77023;BME280;65952;51.440;-2.054;2023-06-26T12:34:56;100790.84;;;25.99;30.96
77023;BME280;65952;51.440;-2.054;2023-06-26T12:37:23;100789.91;;;25.61;29.26
77023;BME280;65952;51.440;-2.054;2023-06-26T12:39:55;100786.78;;;25.52;29.76
77023;BME280;65952;51.440;-2.054;2023-06-26T12:42:32;100789.69;;;25.23;31.35
77023;BME280;65952;51.440;-2.054;2023-06-26T12:44:58;100788.22;;;25.38;30.78
77023;BME280;65952;51.440;-2.054;2023-06-26T12:47:25;100792.38;;;25.62;30.38
77023;BME280;65952;51.440;-2.054;2023-06-26T12:49:52;100791.16;;;25.75;30.24